createdAt,value
2017-07-03T00:02:10.652Z,20.70
2017-07-03T00:04:38.888Z,20.40
2017-07-03T00:07:07.271Z,20.60
2017-07-03T00:09:35.723Z,20.60
2017-07-03T00:12:03.965Z,20.70
2017-07-03T00:14:32.266Z,20.80
2017-07-03T00:17:00.719Z,20.60
2017-07-03T00:19:29.201Z,20.50
2017-07-03T00:21:57.476Z,20.70
2017-07-03T00:24:25.703Z,20.90
2017-07-03T00:26:53.980Z,20.80
2017-07-03T00:29:22.283Z,20.80
2017-07-03T00:31:50.516Z,20.90
2017-07-03T00:34:18.752Z,20.50
2017-07-03T00:36:47.068Z,20.10
2017-07-03T00:39:15.289Z,20.10
2017-07-03T00:41:43.580Z,20.10
2017-07-03T00:44:11.835Z,20.00
2017-07-03T00:46:40.064Z,20.20
2017-07-03T00:49:08.382Z,20.30
2017-07-03T00:51:36.655Z,20.50
2017-07-03T00:54:04.877Z,20.70
2017-07-03T00:56:33.115Z,20.80
2017-07-03T00:59:01.614Z,20.70
2017-07-03T01:01:30.184Z,20.70
2017-07-03T01:03:58.555Z,20.70
2017-07-03T01:06:26.809Z,20.70
2017-07-03T01:08:56.108Z,20.80
2017-07-03T01:11:24.348Z,20.90
2017-07-03T01:13:52.626Z,21.00
2017-07-03T01:16:20.871Z,21.10
2017-07-03T01:18:49.107Z,21.10
2017-07-03T01:21:17.377Z,21.00
2017-07-03T01:23:45.844Z,21.10
2017-07-03T01:26:14.100Z,21.10
2017-07-03T01:28:42.360Z,21.20
2017-07-03T01:31:10.641Z,21.20
2017-07-03T01:33:38.868Z,21.20
2017-07-03T01:36:07.131Z,21.20
2017-07-03T01:38:35.358Z,21.10
2017-07-03T01:41:03.597Z,20.90
2017-07-03T01:43:32.120Z,20.70
2017-07-03T01:46:00.356Z,20.60
2017-07-03T01:48:28.588Z,20.60
2017-07-03T01:50:57.264Z,20.70
2017-07-03T01:53:25.492Z,20.70
2017-07-03T01:55:53.729Z,20.80
2017-07-03T01:58:22.000Z,20.80
2017-07-03T02:00:50.436Z,20.80
2017-07-03T02:03:18.660Z,20.70
2017-07-03T02:05:47.219Z,20.60
2017-07-03T02:08:15.916Z,20.70
2017-07-03T02:10:44.247Z,20.80
2017-07-03T02:13:12.500Z,20.80
2017-07-03T02:15:40.754Z,20.90
2017-07-03T02:18:09.491Z,21.00
2017-07-03T02:20:37.744Z,21.00
2017-07-03T02:23:05.979Z,21.10
2017-07-03T02:25:34.312Z,21.00
2017-07-03T02:28:02.580Z,21.00
2017-07-03T02:30:30.814Z,21.00
2017-07-03T02:32:59.052Z,21.10
2017-07-03T02:35:27.336Z,21.10
2017-07-03T02:37:55.831Z,21.00
2017-07-03T02:40:24.088Z,21.00
2017-07-03T02:42:52.444Z,21.00
2017-07-03T02:45:20.671Z,21.00
2017-07-03T02:47:48.901Z,21.00
2017-07-03T02:50:17.167Z,20.90
2017-07-03T02:52:45.435Z,20.90
2017-07-03T02:55:13.672Z,20.90
2017-07-03T02:57:41.941Z,20.90
2017-07-03T03:00:10.472Z,20.90
2017-07-03T03:02:38.697Z,21.00
2017-07-03T03:05:06.957Z,21.00
2017-07-03T03:07:35.184Z,21.10
2017-07-03T03:10:03.443Z,21.10
2017-07-03T03:12:31.719Z,21.10
2017-07-03T03:15:00.347Z,21.20
2017-07-03T03:17:28.587Z,21.20
2017-07-03T03:19:57.251Z,21.20
2017-07-03T03:22:25.490Z,21.20
2017-07-03T03:24:53.721Z,21.20
2017-07-03T03:27:22.000Z,20.80
2017-07-03T03:29:50.631Z,20.80
2017-07-03T03:32:18.864Z,20.70
2017-07-03T03:34:47.413Z,20.70
2017-07-03T03:37:15.641Z,20.50
2017-07-03T03:39:43.877Z,20.50
2017-07-03T03:42:12.536Z,20.60
2017-07-03T03:44:41.028Z,20.60
2017-07-03T03:47:09.252Z,20.60
2017-07-03T03:49:37.628Z,20.60
2017-07-03T03:52:05.880Z,20.70
2017-07-03T03:54:34.503Z,20.80
2017-07-03T03:57:02.768Z,20.80
2017-07-03T03:59:30.992Z,20.80
2017-07-03T04:02:00.744Z,20.90
2017-07-03T04:04:29.054Z,20.90
2017-07-03T04:06:57.396Z,21.00
2017-07-03T04:09:25.671Z,21.10
2017-07-03T04:11:54.557Z,20.40
2017-07-03T04:14:23.516Z,20.50
2017-07-03T04:16:51.748Z,20.50
2017-07-03T04:19:20.016Z,20.30
2017-07-03T04:21:48.246Z,20.50
2017-07-03T04:24:16.480Z,20.50
2017-07-03T04:26:44.742Z,20.60
2017-07-03T04:29:12.987Z,20.80
2017-07-03T04:31:41.632Z,20.30
2017-07-03T04:34:09.942Z,20.30
2017-07-03T04:36:38.191Z,20.20
2017-07-03T04:39:06.421Z,20.10
2017-07-03T04:41:34.688Z,20.10
2017-07-03T04:44:02.920Z,20.20
2017-07-03T04:46:31.153Z,20.40
2017-07-03T04:48:59.477Z,20.70
2017-07-03T04:51:27.721Z,20.80
2017-07-03T04:53:55.960Z,21.00
2017-07-03T04:56:24.682Z,21.20
2017-07-03T04:58:53.484Z,21.30
2017-07-03T05:01:21.747Z,21.30
2017-07-03T05:03:50.013Z,21.40
2017-07-03T05:06:18.295Z,21.40
2017-07-03T05:08:46.582Z,21.50
2017-07-03T05:11:14.860Z,21.60
2017-07-03T05:13:43.129Z,21.60
2017-07-03T05:16:11.351Z,21.60
2017-07-03T05:18:40.041Z,21.70
2017-07-03T05:21:08.607Z,21.70
2017-07-03T05:23:37.192Z,21.70
2017-07-03T05:26:05.511Z,21.50
2017-07-03T05:28:34.460Z,21.40
2017-07-03T05:31:03.373Z,21.50
2017-07-03T05:33:31.797Z,21.50
2017-07-03T05:36:00.103Z,21.40
2017-07-03T05:38:28.450Z,21.50
2017-07-03T05:40:56.756Z,21.40
2017-07-03T05:43:30.796Z,21.50
2017-07-03T05:45:59.471Z,21.70
2017-07-03T05:48:27.792Z,21.70
2017-07-03T05:50:56.036Z,21.80
2017-07-03T05:53:24.893Z,21.90
2017-07-03T05:55:53.131Z,22.00
2017-07-03T05:58:21.784Z,22.00
2017-07-03T06:00:52.606Z,22.00
2017-07-03T06:03:20.869Z,22.00
2017-07-03T06:05:49.132Z,22.00
2017-07-03T06:08:17.483Z,22.00
2017-07-03T06:10:45.796Z,22.10
2017-07-03T06:13:14.039Z,22.10
2017-07-03T06:15:43.099Z,22.10
2017-07-03T06:18:11.750Z,22.10
2017-07-03T06:20:39.978Z,22.10
2017-07-03T06:23:08.254Z,21.90
2017-07-03T06:25:36.489Z,21.90
2017-07-03T06:28:04.720Z,21.70
2017-07-03T06:30:33.130Z,21.60
2017-07-03T06:33:01.359Z,21.70
2017-07-03T06:35:29.600Z,21.90
2017-07-03T06:37:58.260Z,22.40
2017-07-03T06:40:26.507Z,22.40
2017-07-03T06:42:54.740Z,22.50
2017-07-03T06:45:23.017Z,22.60
2017-07-03T06:47:51.254Z,22.60
2017-07-03T06:50:19.759Z,22.90
2017-07-03T06:52:48.335Z,23.20
2017-07-03T06:55:16.649Z,23.50
2017-07-03T06:57:44.878Z,23.60
2017-07-03T07:00:13.174Z,23.40
2017-07-03T07:02:41.403Z,23.20
2017-07-03T07:05:09.631Z,23.30
2017-07-03T07:07:38.400Z,24.00
2017-07-03T07:10:06.699Z,24.00
2017-07-03T07:12:35.331Z,24.10
2017-07-03T07:15:03.599Z,24.10
2017-07-03T07:17:31.835Z,24.20
2017-07-03T07:20:00.077Z,24.20
2017-07-03T07:22:28.600Z,24.50
2017-07-03T07:24:57.231Z,25.10
2017-07-03T07:27:28.090Z,25.10
2017-07-03T07:29:56.752Z,25.50
2017-07-03T07:32:25.153Z,25.70
2017-07-03T07:34:53.441Z,25.80
2017-07-03T07:37:21.722Z,25.80
2017-07-03T07:39:49.984Z,25.90
2017-07-03T07:42:18.210Z,26.00
2017-07-03T07:44:46.500Z,26.00
2017-07-03T07:47:14.731Z,26.00
2017-07-03T07:49:43.011Z,25.90
2017-07-03T07:52:11.879Z,26.30
2017-07-03T07:54:40.186Z,26.30
2017-07-03T07:57:10.663Z,26.60
2017-07-03T07:59:39.614Z,26.60
2017-07-03T08:02:07.913Z,26.90
2017-07-03T08:04:36.153Z,26.90
2017-07-03T08:07:04.452Z,27.10
2017-07-03T08:09:32.689Z,27.20
2017-07-03T08:12:00.968Z,27.40
2017-07-03T08:14:29.233Z,27.50
2017-07-03T08:17:04.168Z,27.50
2017-07-03T08:19:32.417Z,27.70
2017-07-03T08:22:00.644Z,27.50
2017-07-03T08:24:28.879Z,27.40
2017-07-03T08:26:57.140Z,27.60
2017-07-03T08:29:25.523Z,27.80
2017-07-03T08:31:53.764Z,27.90
2017-07-03T08:34:22.063Z,28.00
2017-07-03T08:36:50.571Z,28.00
2017-07-03T08:39:18.842Z,27.60
2017-07-03T08:41:47.093Z,27.00
2017-07-03T08:44:15.331Z,26.20
2017-07-03T08:46:43.976Z,23.60
2017-07-03T08:49:12.279Z,23.60
2017-07-03T08:51:40.751Z,22.80
2017-07-03T08:54:09.056Z,22.50
2017-07-03T08:56:37.334Z,22.60
2017-07-03T08:59:05.572Z,23.10
2017-07-03T09:01:33.810Z,23.50
2017-07-03T09:04:02.076Z,23.70
2017-07-03T09:06:30.312Z,23.40
2017-07-03T09:08:58.948Z,22.70
2017-07-03T09:11:27.663Z,22.70
2017-07-03T09:13:55.918Z,23.10
2017-07-03T09:16:24.148Z,23.50
2017-07-03T09:18:52.455Z,23.70
2017-07-03T09:21:20.692Z,23.80
2017-07-03T09:23:49.348Z,23.70
2017-07-03T09:26:17.611Z,23.70
2017-07-03T09:28:45.859Z,23.90
2017-07-03T09:31:14.088Z,23.90
2017-07-03T09:33:42.420Z,24.10
2017-07-03T09:36:10.653Z,22.90
2017-07-03T09:38:39.283Z,23.40
2017-07-03T09:41:07.802Z,23.50
2017-07-03T09:43:36.841Z,23.80
2017-07-03T09:46:05.926Z,23.80
2017-07-03T09:48:34.340Z,24.30
2017-07-03T09:51:02.624Z,24.60
2017-07-03T09:53:30.866Z,24.60
2017-07-03T09:55:59.414Z,24.40
2017-07-03T09:58:27.647Z,24.30
2017-07-03T10:00:55.890Z,24.40
2017-07-03T10:03:24.610Z,24.10
2017-07-03T10:05:52.907Z,24.10
2017-07-03T10:08:21.146Z,24.00
2017-07-03T10:10:49.559Z,24.10
2017-07-03T10:13:17.940Z,24.00
2017-07-03T10:15:46.172Z,24.30
2017-07-03T10:18:14.704Z,24.10
2017-07-03T10:20:42.974Z,24.30
2017-07-03T10:23:11.187Z,24.90
2017-07-03T10:25:39.621Z,25.10
2017-07-03T10:28:08.416Z,24.80
2017-07-03T10:30:36.651Z,24.60
2017-07-03T10:33:05.312Z,25.20
2017-07-03T10:35:33.548Z,25.70
2017-07-03T10:38:01.780Z,25.80
2017-07-03T10:40:30.051Z,25.50
2017-07-03T10:42:58.381Z,25.40
2017-07-03T10:45:26.632Z,25.40
2017-07-03T10:47:54.898Z,25.80
2017-07-03T10:50:23.120Z,26.20
2017-07-03T10:52:51.396Z,26.40
2017-07-03T10:55:19.668Z,26.50
2017-07-03T10:57:47.915Z,26.60
2017-07-03T11:00:16.170Z,26.70
2017-07-03T11:02:44.517Z,27.10
2017-07-03T11:05:12.748Z,27.40
2017-07-03T11:07:40.978Z,27.50
2017-07-03T11:10:09.253Z,27.30
2017-07-03T11:12:37.483Z,27.30
2017-07-03T11:15:06.076Z,27.20
2017-07-03T11:17:34.696Z,27.10
2017-07-03T11:20:03.772Z,27.40
2017-07-03T11:22:32.426Z,27.60
2017-07-03T11:25:00.703Z,27.70
2017-07-03T11:27:30.330Z,27.80
2017-07-03T11:29:58.560Z,28.00
2017-07-03T11:32:27.189Z,28.20
2017-07-03T11:34:55.431Z,28.40
2017-07-03T11:37:23.715Z,28.40
2017-07-03T11:39:57.084Z,28.40
2017-07-03T11:42:25.318Z,28.20
2017-07-03T11:44:53.951Z,28.60
2017-07-03T11:47:22.228Z,28.60
2017-07-03T11:49:51.148Z,28.60
2017-07-03T11:52:19.400Z,28.20
2017-07-03T11:54:47.667Z,28.00
2017-07-03T11:57:15.906Z,27.80
2017-07-03T11:59:45.197Z,27.50
2017-07-03T12:02:13.452Z,27.50
2017-07-03T12:04:41.729Z,27.50
2017-07-03T12:07:09.987Z,27.50
2017-07-03T12:09:38.278Z,27.60
2017-07-03T12:12:06.574Z,27.80
2017-07-03T12:14:35.239Z,27.60
2017-07-03T12:17:03.596Z,27.60
2017-07-03T12:19:31.902Z,27.60
2017-07-03T12:22:00.146Z,27.70
2017-07-03T12:24:29.382Z,27.70
2017-07-03T12:26:57.623Z,27.80
2017-07-03T12:29:26.137Z,28.10
2017-07-03T12:31:54.401Z,28.10
2017-07-03T12:34:23.508Z,28.00
2017-07-03T12:36:51.743Z,27.90
2017-07-03T12:39:21.875Z,28.20
2017-07-03T12:41:50.113Z,28.40
2017-07-03T12:44:19.064Z,28.60
2017-07-03T12:46:48.163Z,28.70
2017-07-03T12:49:16.400Z,28.70
2017-07-03T12:51:45.117Z,28.60
2017-07-03T12:54:14.291Z,28.50
2017-07-03T12:56:43.505Z,28.40
2017-07-03T12:59:14.034Z,28.20
2017-07-03T13:01:42.539Z,28.10
2017-07-03T13:04:10.847Z,28.20
2017-07-03T13:06:39.273Z,28.40
2017-07-03T13:09:19.225Z,28.50
2017-07-03T13:11:47.608Z,28.40
2017-07-03T13:14:15.847Z,28.40
2017-07-03T13:16:44.853Z,28.60
2017-07-03T13:19:13.120Z,28.70
2017-07-03T13:21:41.432Z,28.90
2017-07-03T13:24:09.703Z,28.70
2017-07-03T13:26:37.974Z,28.10
2017-07-03T13:29:06.203Z,28.00
2017-07-03T13:31:34.431Z,27.90
2017-07-03T13:34:04.968Z,28.10
2017-07-03T13:36:33.713Z,27.10
2017-07-03T13:39:02.002Z,27.10
2017-07-03T13:41:30.276Z,26.90
2017-07-03T13:43:58.519Z,26.80
2017-07-03T13:46:26.760Z,27.10
2017-07-03T13:48:55.020Z,27.10
2017-07-03T13:51:23.306Z,26.90
2017-07-03T13:53:51.542Z,26.70
2017-07-03T13:56:20.075Z,26.70
2017-07-03T13:58:49.089Z,26.80
2017-07-03T14:01:17.723Z,27.20
2017-07-03T14:03:46.100Z,27.20
2017-07-03T14:06:14.389Z,27.40
2017-07-03T14:08:42.643Z,27.10
2017-07-03T14:11:10.950Z,26.90
2017-07-03T14:13:39.325Z,26.40
2017-07-03T14:16:07.561Z,26.30
2017-07-03T14:18:35.852Z,26.10
2017-07-03T14:21:04.163Z,26.30
2017-07-03T14:23:32.394Z,26.30
2017-07-03T14:26:01.589Z,26.50
2017-07-03T14:28:29.828Z,26.70
2017-07-03T14:30:58.457Z,27.10
2017-07-03T14:33:26.717Z,27.10
2017-07-03T14:35:55.250Z,27.10
2017-07-03T14:38:23.490Z,27.20
2017-07-03T14:40:51.782Z,27.20
2017-07-03T14:43:20.036Z,27.20
2017-07-03T14:45:48.320Z,27.10
2017-07-03T14:48:16.620Z,27.20
2017-07-03T14:50:44.836Z,27.30
2017-07-03T14:53:13.076Z,27.30
2017-07-03T14:55:41.342Z,27.20
2017-07-03T14:58:09.629Z,26.90
2017-07-03T15:00:37.999Z,26.60
2017-07-03T15:03:06.369Z,26.30
2017-07-03T15:05:34.727Z,26.20
2017-07-03T15:08:03.007Z,26.10
2017-07-03T15:10:31.427Z,26.10
2017-07-03T15:12:59.667Z,25.80
2017-07-03T15:15:27.921Z,25.80
2017-07-03T15:17:56.459Z,25.90
2017-07-03T15:20:24.698Z,26.10
2017-07-03T15:22:52.998Z,26.30
2017-07-03T15:25:21.485Z,26.30
2017-07-03T15:27:49.723Z,26.20
2017-07-03T15:30:17.956Z,26.20
2017-07-03T15:32:46.652Z,26.20
2017-07-03T15:35:15.309Z,26.20
2017-07-03T15:37:43.643Z,26.10
2017-07-03T15:40:11.914Z,26.10
2017-07-03T15:42:40.620Z,26.10
2017-07-03T15:45:08.915Z,26.10
2017-07-03T15:47:38.091Z,26.10
2017-07-03T15:50:06.702Z,26.00
2017-07-03T15:52:34.931Z,26.00
2017-07-03T15:55:03.278Z,25.90
2017-07-03T15:57:31.531Z,25.90
2017-07-03T15:59:59.774Z,25.70
2017-07-03T16:02:28.931Z,25.70
2017-07-03T16:04:57.168Z,25.60
2017-07-03T16:07:25.533Z,25.50
2017-07-03T16:09:53.868Z,25.60
2017-07-03T16:12:22.512Z,25.60
2017-07-03T16:14:50.727Z,25.60
2017-07-03T16:17:19.423Z,25.50
2017-07-03T16:19:47.661Z,25.40
2017-07-03T16:22:16.139Z,25.50
2017-07-03T16:24:44.632Z,25.50
2017-07-03T16:27:12.878Z,25.60
2017-07-03T16:29:41.131Z,25.70
2017-07-03T16:32:09.469Z,25.70
2017-07-03T16:34:38.120Z,25.70
2017-07-03T16:37:06.335Z,25.70
2017-07-03T16:39:35.016Z,25.10
2017-07-03T16:42:03.649Z,24.80
2017-07-03T16:44:31.887Z,24.80
2017-07-03T16:47:00.564Z,24.60
2017-07-03T16:49:28.947Z,24.60
2017-07-03T16:51:57.169Z,24.80
2017-07-03T16:54:25.424Z,24.90
2017-07-03T16:56:53.667Z,25.10
2017-07-03T16:59:22.224Z,25.10
2017-07-03T17:01:50.511Z,25.10
2017-07-03T17:04:18.952Z,25.10
2017-07-03T17:06:47.183Z,24.90
2017-07-03T17:09:15.465Z,25.00
2017-07-03T17:11:43.704Z,25.10
2017-07-03T17:14:11.944Z,25.10
2017-07-03T17:16:40.212Z,25.00
2017-07-03T17:19:08.442Z,24.80
2017-07-03T17:21:36.676Z,24.80
2017-07-03T17:24:04.952Z,24.80
2017-07-03T17:26:33.350Z,24.90
2017-07-03T17:29:02.660Z,24.80
2017-07-03T17:31:31.133Z,24.80
2017-07-03T17:33:59.368Z,24.90
2017-07-03T17:36:27.909Z,24.90
2017-07-03T17:38:56.243Z,25.00
2017-07-03T17:41:24.513Z,25.00
2017-07-03T17:43:52.731Z,25.10
2017-07-03T17:46:21.011Z,25.10
2017-07-03T17:48:49.379Z,25.10
2017-07-03T17:51:17.750Z,25.10
2017-07-03T17:53:46.195Z,25.20
2017-07-03T17:56:14.502Z,25.10
2017-07-03T17:58:42.742Z,25.00
2017-07-03T18:01:11.058Z,24.90
2017-07-03T18:03:40.237Z,24.90
2017-07-03T18:06:08.525Z,24.80
2017-07-03T18:08:36.884Z,24.80
2017-07-03T18:11:05.190Z,24.80
2017-07-03T18:13:33.462Z,24.80
2017-07-03T18:16:01.754Z,24.80
2017-07-03T18:18:29.999Z,24.90
2017-07-03T18:20:58.251Z,24.90
2017-07-03T18:23:26.553Z,24.70
2017-07-03T18:25:54.782Z,24.60
2017-07-03T18:28:23.042Z,24.70
2017-07-03T18:30:51.397Z,24.60
2017-07-03T18:33:19.648Z,24.60
2017-07-03T18:35:47.955Z,24.60
2017-07-03T18:38:16.267Z,24.50
2017-07-03T18:40:44.500Z,24.50
2017-07-03T18:43:12.734Z,24.50
2017-07-03T18:45:41.041Z,24.40
2017-07-03T18:48:09.270Z,24.40
2017-07-03T18:50:37.604Z,24.30
2017-07-03T18:53:05.881Z,24.30
2017-07-03T18:55:34.235Z,24.30
2017-07-03T18:58:02.473Z,24.30
2017-07-03T19:00:31.160Z,24.10
2017-07-03T19:02:59.421Z,24.10
2017-07-03T19:05:27.774Z,24.00
2017-07-03T19:07:56.154Z,24.00
2017-07-03T19:10:24.391Z,23.90
2017-07-03T19:12:52.631Z,23.80
2017-07-03T19:15:21.327Z,23.70
2017-07-03T19:17:49.568Z,23.70
2017-07-03T19:20:17.806Z,23.50
2017-07-03T19:22:46.051Z,23.40
2017-07-03T19:25:14.743Z,23.50
2017-07-03T19:27:43.495Z,23.50
2017-07-03T19:30:11.773Z,23.50
2017-07-03T19:32:40.477Z,23.50
2017-07-03T19:35:08.716Z,23.50
2017-07-03T19:37:36.982Z,23.40
2017-07-03T19:40:05.210Z,23.40
2017-07-03T19:42:33.656Z,23.50
2017-07-03T19:45:01.943Z,23.50
2017-07-03T19:47:30.190Z,23.40
2017-07-03T19:49:58.420Z,23.30
2017-07-03T19:52:27.071Z,23.20
2017-07-03T19:54:55.299Z,23.20
2017-07-03T19:57:23.620Z,23.10
2017-07-03T19:59:51.900Z,23.00
2017-07-03T20:02:20.916Z,23.00
2017-07-03T20:04:49.566Z,22.90
2017-07-03T20:07:18.170Z,22.90
2017-07-03T20:09:46.405Z,22.90
2017-07-03T20:12:14.725Z,22.90
2017-07-03T20:14:43.087Z,23.00
2017-07-03T20:17:11.308Z,22.90
2017-07-03T20:19:39.732Z,22.90
2017-07-03T20:22:08.003Z,22.90
2017-07-03T20:24:36.349Z,22.90
2017-07-03T20:27:04.741Z,22.90
2017-07-03T20:29:33.009Z,22.90
2017-07-03T20:32:01.268Z,22.80
2017-07-03T20:34:29.880Z,22.90
2017-07-03T20:36:58.185Z,22.90
2017-07-03T20:39:26.412Z,22.90
2017-07-03T20:41:54.667Z,22.80
2017-07-03T20:44:22.920Z,22.90
2017-07-03T20:46:51.399Z,22.90
2017-07-03T20:49:19.892Z,22.90
2017-07-03T20:51:48.155Z,22.80
2017-07-03T20:54:16.404Z,22.70
2017-07-03T20:56:44.644Z,22.60
2017-07-03T20:59:13.385Z,22.60
2017-07-03T21:01:42.525Z,22.60
2017-07-03T21:04:11.195Z,22.40
2017-07-03T21:06:39.865Z,22.40
2017-07-03T21:09:08.815Z,22.40
2017-07-03T21:11:37.053Z,22.50
2017-07-03T21:14:05.887Z,22.30
2017-07-03T21:16:34.115Z,22.30
2017-07-03T21:19:02.735Z,22.40
2017-07-03T21:21:31.005Z,22.40
2017-07-03T21:23:59.248Z,22.30
2017-07-03T21:26:27.809Z,22.30
2017-07-03T21:28:56.071Z,22.30
2017-07-03T21:31:24.301Z,22.40
2017-07-03T21:33:52.612Z,22.50
2017-07-03T21:36:21.216Z,22.40
2017-07-03T21:38:49.451Z,22.30
2017-07-03T21:41:18.463Z,22.30
2017-07-03T21:43:46.739Z,22.30
2017-07-03T21:46:14.983Z,22.30
2017-07-03T21:48:43.213Z,22.30
2017-07-03T21:51:11.491Z,22.30
2017-07-03T21:53:40.171Z,22.20
2017-07-03T21:56:08.411Z,22.30
2017-07-03T21:58:36.680Z,22.30
2017-07-03T22:01:06.865Z,22.30
2017-07-03T22:03:35.715Z,22.30
2017-07-03T22:06:03.994Z,22.30
2017-07-03T22:08:32.252Z,22.30
2017-07-03T22:11:00.515Z,22.40
2017-07-03T22:13:28.856Z,22.40
2017-07-03T22:15:57.110Z,22.40
2017-07-03T22:18:25.605Z,22.40
2017-07-03T22:20:54.310Z,22.40
2017-07-03T22:23:22.566Z,22.40
2017-07-03T22:25:50.805Z,22.30
2017-07-03T22:28:19.075Z,22.30
2017-07-03T22:30:47.316Z,22.20
2017-07-03T22:33:16.183Z,22.30
2017-07-03T22:35:44.687Z,22.30
2017-07-03T22:38:12.931Z,22.30
2017-07-03T22:40:41.147Z,22.30
2017-07-03T22:43:09.415Z,22.40
2017-07-03T22:45:37.663Z,22.40
2017-07-03T22:48:06.249Z,22.30
2017-07-03T22:50:34.607Z,22.20
2017-07-03T22:53:03.620Z,22.20
2017-07-03T22:55:31.848Z,22.20
2017-07-03T22:58:00.116Z,22.20
2017-07-03T23:00:28.419Z,22.20
2017-07-03T23:02:56.756Z,22.20
2017-07-03T23:05:25.393Z,22.10
2017-07-03T23:07:53.627Z,22.10
2017-07-03T23:10:21.873Z,22.10
2017-07-03T23:12:50.181Z,22.10
2017-07-03T23:15:18.411Z,22.00
2017-07-03T23:17:46.644Z,21.90
2017-07-03T23:20:14.910Z,21.90
2017-07-03T23:22:43.570Z,22.00
2017-07-03T23:25:11.812Z,22.00
2017-07-03T23:27:40.073Z,22.10
2017-07-03T23:30:08.324Z,22.00
2017-07-03T23:32:36.600Z,21.90
2017-07-03T23:35:04.825Z,21.80
2017-07-03T23:37:33.060Z,21.70
2017-07-03T23:40:01.302Z,21.70
2017-07-03T23:42:29.605Z,21.70
2017-07-03T23:44:57.837Z,21.70
2017-07-03T23:47:26.067Z,21.70
2017-07-03T23:49:54.346Z,21.60
2017-07-03T23:52:22.635Z,21.60
2017-07-03T23:54:50.865Z,21.50
2017-07-03T23:57:19.171Z,21.40
2017-07-03T23:59:47.400Z,21.50
